createdAt,value
2018-04-23T00:01:16.387Z,10.43
2018-04-23T00:03:43.959Z,7.37
2018-04-23T00:06:11.492Z,5.77
2018-04-23T00:08:39.068Z,36.47
2018-04-23T00:11:06.638Z,11.17
2018-04-23T00:13:34.203Z,10.40
2018-04-23T00:16:03.243Z,7.33
2018-04-23T00:18:30.815Z,5.83
2018-04-23T00:20:58.375Z,7.50
2018-04-23T00:23:25.911Z,10.30
2018-04-23T00:25:54.241Z,6.30
2018-04-23T00:28:21.782Z,12.07
2018-04-23T00:30:49.353Z,6.30
2018-04-23T00:33:16.886Z,6.80
2018-04-23T00:35:44.453Z,5.50
2018-04-23T00:38:12.021Z,7.00
2018-04-23T00:40:39.558Z,7.83
2018-04-23T00:43:07.128Z,10.90
2018-04-23T00:45:34.667Z,25.10
2018-04-23T00:48:03.011Z,16.27
2018-04-23T00:50:30.596Z,18.10
2018-04-23T00:53:10.963Z,11.17
2018-04-23T00:55:39.299Z,7.97
2018-04-23T00:58:06.840Z,8.60
2018-04-23T01:00:34.412Z,5.97
2018-04-23T01:03:01.947Z,7.30
2018-04-23T01:05:29.519Z,7.53
2018-04-23T01:07:57.054Z,8.33
2018-04-23T01:10:24.621Z,9.23
2018-04-23T01:12:52.193Z,10.07
2018-04-23T01:15:19.726Z,11.63
2018-04-23T01:17:48.059Z,8.80
2018-04-23T01:20:15.590Z,5.60
2018-04-23T01:22:43.177Z,10.80
2018-04-23T01:25:10.708Z,5.67
2018-04-23T01:27:38.238Z,7.37
2018-04-23T01:30:06.569Z,6.07
2018-04-23T01:32:34.138Z,7.90
2018-04-23T01:35:01.677Z,13.33
2018-04-23T01:37:29.253Z,33.63
2018-04-23T01:39:56.792Z,35.57
2018-04-23T01:42:24.329Z,14.67
2018-04-23T01:44:52.666Z,16.70
2018-04-23T01:47:20.200Z,10.40
2018-04-23T01:49:47.770Z,9.93
2018-04-23T01:52:15.335Z,9.27
2018-04-23T01:54:42.868Z,8.50
2018-04-23T01:57:10.437Z,7.73
2018-04-23T01:59:37.986Z,9.83
2018-04-23T02:02:05.562Z,28.27
2018-04-23T02:04:33.099Z,15.33
2018-04-23T02:07:00.688Z,32.60
2018-04-23T02:09:28.221Z,74.57
2018-04-23T02:11:55.756Z,51.97
2018-04-23T02:14:24.090Z,27.23
2018-04-23T02:16:51.666Z,42.23
2018-04-23T02:19:19.205Z,89.07
2018-04-23T02:21:46.762Z,90.60
2018-04-23T02:24:14.350Z,56.77
2018-04-23T02:26:41.894Z,37.63
2018-04-23T02:29:09.637Z,18.37
2018-04-23T02:31:37.252Z,14.53
2018-04-23T02:34:05.596Z,5.63
2018-04-23T02:36:33.136Z,6.97
2018-04-23T02:39:00.703Z,6.80
2018-04-23T02:41:28.283Z,16.73
2018-04-23T02:43:55.829Z,19.80
2018-04-23T02:46:23.372Z,15.17
2018-04-23T02:48:50.947Z,20.03
2018-04-23T02:51:18.479Z,11.90
2018-04-23T02:53:46.048Z,15.63
2018-04-23T02:56:13.583Z,13.83
2018-04-23T02:58:41.934Z,52.37
2018-04-23T03:01:09.466Z,22.07
2018-04-23T03:03:37.010Z,36.00
2018-04-23T03:06:04.581Z,29.07
2018-04-23T03:08:32.157Z,62.87
2018-04-23T03:10:59.722Z,61.73
2018-04-23T03:13:27.293Z,39.70
2018-04-23T03:15:54.831Z,23.80
2018-04-23T03:18:22.366Z,61.63
2018-04-23T03:20:49.931Z,75.93
2018-04-23T03:23:17.466Z,44.60
2018-04-23T03:25:45.814Z,34.70
2018-04-23T03:28:13.355Z,22.73
2018-04-23T03:30:40.934Z,39.43
2018-04-23T03:33:08.472Z,25.27
2018-04-23T03:35:36.052Z,18.47
2018-04-23T03:38:03.592Z,26.67
2018-04-23T03:40:31.125Z,10.50
2018-04-23T03:42:58.686Z,8.87
2018-04-23T03:45:26.249Z,6.43
2018-04-23T03:47:53.783Z,7.40
2018-04-23T03:50:22.123Z,14.40
2018-04-23T03:52:49.687Z,19.37
2018-04-23T03:55:17.262Z,17.20
2018-04-23T03:57:44.820Z,19.37
2018-04-23T04:00:13.153Z,12.37
2018-04-23T04:02:40.727Z,14.07
2018-04-23T04:05:08.309Z,19.57
2018-04-23T04:07:35.846Z,27.73
2018-04-23T04:10:03.385Z,37.90
2018-04-23T04:12:42.710Z,50.67
2018-04-23T04:15:35.966Z,49.63
2018-04-23T04:18:34.027Z,20.57
2018-04-23T04:21:02.366Z,18.47
2018-04-23T04:23:29.910Z,16.77
2018-04-23T04:25:57.482Z,17.10
2018-04-23T04:28:25.011Z,20.00
2018-04-23T04:30:52.594Z,20.73
2018-04-23T04:33:20.131Z,22.40
2018-04-23T04:35:47.700Z,10.00
2018-04-23T04:38:15.270Z,11.00
2018-04-23T04:40:42.858Z,12.10
2018-04-23T04:43:10.395Z,14.73
2018-04-23T04:45:37.979Z,22.73
2018-04-23T04:48:05.522Z,15.00
2018-04-23T04:50:33.107Z,15.00
2018-04-23T04:53:00.682Z,11.83
2018-04-23T04:55:28.987Z,10.27
2018-04-23T04:57:57.423Z,10.67
2018-04-23T05:00:25.015Z,11.23
2018-04-23T05:02:53.336Z,19.33
2018-04-23T05:05:20.880Z,17.27
2018-04-23T05:07:48.454Z,22.50
2018-04-23T05:10:15.994Z,19.13
2018-04-23T05:12:43.570Z,12.73
2018-04-23T05:15:11.137Z,12.23
2018-04-23T05:17:38.707Z,14.90
2018-04-23T05:20:06.237Z,20.03
2018-04-23T05:22:34.575Z,44.60
2018-04-23T05:25:02.118Z,59.97
2018-04-23T05:27:31.199Z,58.93
2018-04-23T05:29:58.763Z,37.83
2018-04-23T05:32:26.345Z,16.13
2018-04-23T05:34:54.647Z,32.83
2018-04-23T05:37:22.982Z,13.30
2018-04-23T05:39:50.530Z,18.37
2018-04-23T05:42:18.117Z,30.77
2018-04-23T05:44:47.174Z,20.93
2018-04-23T05:47:14.711Z,15.90
2018-04-23T05:49:42.269Z,29.73
2018-04-23T05:52:09.806Z,14.53
2018-04-23T05:54:38.143Z,11.00
2018-04-23T05:57:05.711Z,17.67
2018-04-23T05:59:33.244Z,16.47
2018-04-23T06:02:00.810Z,10.07
2018-04-23T06:04:28.373Z,15.03
2018-04-23T06:06:55.915Z,19.33
2018-04-23T06:09:23.481Z,14.53
2018-04-23T06:11:51.015Z,9.47
2018-04-23T06:14:19.406Z,6.53
2018-04-23T06:16:46.990Z,10.43
2018-04-23T06:19:14.570Z,15.33
2018-04-23T06:21:42.103Z,19.90
2018-04-23T06:24:09.640Z,24.73
2018-04-23T06:26:37.979Z,10.50
2018-04-23T06:29:05.524Z,15.63
2018-04-23T06:31:33.102Z,13.87
2018-04-23T06:34:00.646Z,11.40
2018-04-23T06:36:28.226Z,14.23
2018-04-23T06:38:55.761Z,24.27
2018-04-23T06:41:23.327Z,11.90
2018-04-23T06:43:50.911Z,12.73
2018-04-23T06:46:19.236Z,13.30
2018-04-23T06:48:46.809Z,7.30
2018-04-23T06:51:14.351Z,11.03
2018-04-23T06:53:41.936Z,8.70
2018-04-23T06:56:09.473Z,13.40
2018-04-23T06:58:37.012Z,11.27
2018-04-23T07:01:05.358Z,7.27
2018-04-23T07:03:32.893Z,7.03
2018-04-23T07:06:00.462Z,7.73
2018-04-23T07:08:28.005Z,10.87
2018-04-23T07:10:55.593Z,12.57
2018-04-23T07:13:23.128Z,8.80
2018-04-23T07:15:50.703Z,11.43
2018-04-23T07:18:18.244Z,11.83
2018-04-23T07:20:45.816Z,9.07
2018-04-23T07:23:13.356Z,8.33
2018-04-23T07:25:40.900Z,16.07
2018-04-23T07:28:09.309Z,10.17
2018-04-23T07:30:36.847Z,14.77
2018-04-23T07:33:04.417Z,10.70
2018-04-23T07:35:32.004Z,14.53
2018-04-23T07:37:59.536Z,8.03
2018-04-23T07:40:27.074Z,7.17
2018-04-23T07:42:55.609Z,10.83
2018-04-23T07:45:23.143Z,12.30
2018-04-23T07:47:50.710Z,7.87
2018-04-23T07:50:18.276Z,9.30
2018-04-23T07:52:45.814Z,10.43
2018-04-23T07:55:13.938Z,19.93
2018-04-23T07:57:41.532Z,6.83
2018-04-23T08:00:09.823Z,8.47
2018-04-23T08:02:37.511Z,12.83
2018-04-23T08:05:05.285Z,9.30
2018-04-23T08:07:32.826Z,6.03
2018-04-23T08:10:00.361Z,9.80
2018-04-23T08:12:27.931Z,5.47
2018-04-23T08:14:55.464Z,5.77
2018-04-23T08:17:23.888Z,7.43
2018-04-23T08:19:51.463Z,41.80
2018-04-23T08:22:19.035Z,7.50
2018-04-23T08:24:46.585Z,10.47
2018-04-23T08:27:14.130Z,10.93
2018-04-23T08:29:41.706Z,12.07
2018-04-23T08:32:09.242Z,15.33
2018-04-23T08:34:36.810Z,15.60
2018-04-23T08:37:04.384Z,9.30
2018-04-23T08:39:31.975Z,9.40
2018-04-23T08:41:59.516Z,11.67
2018-04-23T08:44:27.053Z,8.53
2018-04-23T08:46:54.627Z,7.90
2018-04-23T08:49:22.280Z,6.57
2018-04-23T08:51:49.846Z,10.40
2018-04-23T08:54:17.419Z,17.37
2018-04-23T08:56:44.985Z,9.90
2018-04-23T08:59:12.690Z,11.27
2018-04-23T09:01:41.030Z,9.67
2018-04-23T09:04:08.570Z,6.20
2018-04-23T09:06:36.139Z,7.20
2018-04-23T09:09:03.679Z,5.37
2018-04-23T09:11:31.254Z,8.20
2018-04-23T09:13:58.785Z,6.40
2018-04-23T09:16:26.346Z,9.50
2018-04-23T09:18:53.883Z,9.90
2018-04-23T09:21:22.223Z,10.33
2018-04-23T09:23:49.779Z,5.03
2018-04-23T09:26:44.808Z,13.07
2018-04-23T09:29:14.961Z,6.67
2018-04-23T09:31:42.536Z,8.33
2018-04-23T09:34:10.082Z,10.73
2018-04-23T09:36:37.631Z,7.17
2018-04-23T09:39:06.777Z,9.93
2018-04-23T09:41:34.311Z,9.93
2018-04-23T09:44:01.840Z,5.87
2018-04-23T09:46:30.178Z,17.77
2018-04-23T09:48:57.750Z,10.07
2018-04-23T09:51:25.327Z,9.63
2018-04-23T09:53:52.897Z,12.40
2018-04-23T09:56:21.316Z,9.23
2018-04-23T09:58:48.890Z,8.87
2018-04-23T10:01:20.447Z,7.80
2018-04-23T10:03:51.024Z,12.23
2018-04-23T10:06:19.340Z,9.53
2018-04-23T10:08:46.920Z,10.13
2018-04-23T10:11:14.870Z,6.27
2018-04-23T10:13:42.405Z,5.83
2018-04-23T10:16:09.967Z,8.30
2018-04-23T10:18:37.526Z,16.20
2018-04-23T10:21:05.090Z,10.03
2018-04-23T10:23:32.668Z,15.27
2018-04-23T10:26:00.210Z,16.57
2018-04-23T10:28:27.774Z,5.67
2018-04-23T10:30:55.349Z,6.80
2018-04-23T10:33:22.884Z,11.80
2018-04-23T10:35:51.182Z,8.83
2018-04-23T10:38:18.763Z,10.60
2018-04-23T10:40:46.359Z,6.10
2018-04-23T10:43:14.707Z,14.30
2018-04-23T10:45:42.234Z,10.00
2018-04-23T10:48:09.807Z,13.33
2018-04-23T10:50:37.472Z,6.00
2018-04-23T10:53:05.030Z,5.93
2018-04-23T10:55:32.592Z,9.13
2018-04-23T10:58:00.151Z,16.20
2018-04-23T11:00:27.727Z,16.27
2018-04-23T11:02:55.262Z,11.23
2018-04-23T11:05:22.846Z,10.07
2018-04-23T11:07:50.378Z,13.43
2018-04-23T11:10:17.909Z,6.70
2018-04-23T11:12:46.249Z,14.10
2018-04-23T11:15:13.828Z,16.57
2018-04-23T11:17:41.366Z,10.87
2018-04-23T11:20:08.898Z,8.73
2018-04-23T11:22:36.464Z,9.37
2018-04-23T11:25:04.006Z,10.53
2018-04-23T11:27:31.569Z,10.50
2018-04-23T11:29:59.106Z,12.43
2018-04-23T11:32:27.468Z,12.70
2018-04-23T11:34:55.023Z,10.30
2018-04-23T11:37:22.567Z,9.87
2018-04-23T11:39:50.139Z,16.60
2018-04-23T11:42:17.666Z,14.60
2018-04-23T11:44:45.230Z,11.40
2018-04-23T11:47:12.804Z,17.97
2018-04-23T11:49:40.350Z,13.00
2018-04-23T11:52:07.918Z,15.70
2018-04-23T11:54:35.464Z,12.10
2018-04-23T11:57:03.034Z,17.53
2018-04-23T11:59:30.578Z,12.80
2018-04-23T12:01:58.154Z,13.93
2018-04-23T12:04:25.704Z,12.57
2018-04-23T12:06:53.269Z,13.33
2018-04-23T12:09:20.918Z,19.63
2018-04-23T12:11:48.452Z,14.77
2018-04-23T12:14:16.785Z,13.37
2018-04-23T12:16:44.321Z,12.47
2018-04-23T12:19:12.234Z,20.93
2018-04-23T12:21:39.833Z,17.00
2018-04-23T12:24:07.422Z,16.30
2018-04-23T12:26:34.995Z,21.13
2018-04-23T12:29:02.522Z,14.90
2018-04-23T12:31:30.096Z,15.07
2018-04-23T12:33:57.635Z,19.13
2018-04-23T12:36:25.210Z,15.43
2018-04-23T12:38:52.782Z,10.90
2018-04-23T12:41:20.324Z,13.90
2018-04-23T12:43:47.887Z,14.43
2018-04-23T12:46:15.491Z,19.23
2018-04-23T12:48:43.019Z,31.73
2018-04-23T12:51:10.555Z,11.63
2018-04-23T12:53:38.896Z,13.63
2018-04-23T12:56:06.426Z,14.13
2018-04-23T12:58:33.998Z,12.70
2018-04-23T13:01:01.535Z,11.73
2018-04-23T13:03:29.136Z,10.53
2018-04-23T13:05:56.667Z,11.03
2018-04-23T13:08:24.207Z,15.87
2018-04-23T13:10:52.471Z,9.20
2018-04-23T13:13:20.772Z,18.17
2018-04-23T13:15:48.345Z,13.83
2018-04-23T13:18:15.882Z,18.03
2018-04-23T13:20:43.455Z,22.70
2018-04-23T13:23:10.986Z,12.10
2018-04-23T13:25:39.318Z,23.27
2018-04-23T13:28:06.889Z,27.70
2018-04-23T13:30:34.428Z,22.37
2018-04-23T13:33:02.013Z,20.10
2018-04-23T13:35:30.363Z,19.60
2018-04-23T13:37:57.909Z,14.13
2018-04-23T13:40:25.481Z,21.90
2018-04-23T13:42:53.099Z,19.07
2018-04-23T13:45:21.446Z,17.77
2018-04-23T13:47:49.003Z,23.53
2018-04-23T13:50:16.869Z,20.40
2018-04-23T13:52:44.611Z,20.63
2018-04-23T13:55:12.207Z,18.50
2018-04-23T13:57:39.839Z,16.20
2018-04-23T14:00:07.497Z,16.30
2018-04-23T14:02:35.238Z,26.00
2018-04-23T14:05:02.810Z,29.97
2018-04-23T14:07:30.359Z,19.57
2018-04-23T14:09:57.940Z,12.33
2018-04-23T14:12:25.516Z,14.70
2018-04-23T14:14:53.101Z,16.53
2018-04-23T14:17:20.647Z,12.07
2018-04-23T14:19:48.183Z,11.80
2018-04-23T14:22:15.750Z,15.13
2018-04-23T14:24:43.509Z,16.20
2018-04-23T14:27:11.086Z,10.87
2018-04-23T14:29:38.650Z,13.87
2018-04-23T14:32:06.219Z,9.70
2018-04-23T14:34:33.853Z,8.90
2018-04-23T14:37:01.429Z,10.27
2018-04-23T14:39:28.972Z,12.67
2018-04-23T14:41:56.562Z,13.20
2018-04-23T14:44:24.097Z,14.10
2018-04-23T14:46:51.666Z,9.67
2018-04-23T14:49:19.195Z,9.63
2018-04-23T14:51:46.757Z,11.30
2018-04-23T14:54:14.343Z,12.00
2018-04-23T14:56:41.927Z,13.67
2018-04-23T14:59:09.459Z,10.27
2018-04-23T15:01:36.998Z,10.67
2018-04-23T15:04:04.572Z,10.00
2018-04-23T15:06:32.104Z,12.40
2018-04-23T15:09:00.444Z,10.83
2018-04-23T15:11:28.011Z,7.17
2018-04-23T15:13:55.552Z,11.93
2018-04-23T15:16:23.113Z,8.53
2018-04-23T15:18:50.682Z,8.23
2018-04-23T15:21:18.260Z,9.53
2018-04-23T15:23:45.794Z,17.67
2018-04-23T15:26:13.335Z,16.43
2018-04-23T15:28:40.902Z,8.30
2018-04-23T15:31:08.441Z,8.70
2018-04-23T15:33:36.013Z,10.57
2018-04-23T15:36:03.553Z,8.67
2018-04-23T15:38:31.124Z,9.13
2018-04-23T15:40:58.699Z,9.43
2018-04-23T15:43:26.246Z,11.03
2018-04-23T15:45:53.785Z,5.50
2018-04-23T15:48:22.122Z,7.57
2018-04-23T15:50:49.689Z,11.07
2018-04-23T15:53:17.243Z,10.57
2018-04-23T15:55:44.877Z,12.50
2018-04-23T15:58:12.452Z,11.33
2018-04-23T16:00:39.986Z,7.43
2018-04-23T16:03:07.526Z,11.60
2018-04-23T16:05:35.845Z,15.00
2018-04-23T16:08:03.383Z,15.43
2018-04-23T16:10:30.962Z,15.30
2018-04-23T16:12:58.498Z,14.87
2018-04-23T16:15:26.069Z,16.27
2018-04-23T16:17:53.639Z,11.13
2018-04-23T16:20:21.167Z,9.73
2018-04-23T16:22:49.496Z,8.97
2018-04-23T16:25:17.071Z,11.30
2018-04-23T16:27:46.118Z,11.30
2018-04-23T16:30:13.687Z,11.93
2018-04-23T16:32:41.230Z,15.03
2018-04-23T16:35:08.817Z,7.30
2018-04-23T16:37:36.349Z,12.37
2018-04-23T16:40:03.884Z,8.97
2018-04-23T16:42:32.246Z,10.13
2018-04-23T16:44:59.814Z,8.90
2018-04-23T16:47:27.333Z,6.50
2018-04-23T16:49:54.902Z,11.33
2018-04-23T16:52:22.472Z,5.40
2018-04-23T16:54:50.011Z,17.80
2018-04-23T16:57:17.582Z,24.43
2018-04-23T16:59:45.146Z,12.33
2018-04-23T17:02:12.729Z,9.30
2018-04-23T17:04:40.271Z,11.83
2018-04-23T17:07:07.847Z,9.97
2018-04-23T17:09:35.382Z,10.33
2018-04-23T17:12:02.919Z,9.70
2018-04-23T17:14:30.485Z,8.07
2018-04-23T17:16:58.020Z,48.20
2018-04-23T17:19:26.375Z,12.47
2018-04-23T17:21:53.907Z,8.27
2018-04-23T17:24:21.439Z,14.90
2018-04-23T17:26:49.012Z,12.63
2018-04-23T17:29:16.600Z,11.03
2018-04-23T17:31:44.135Z,7.97
2018-04-23T17:34:11.690Z,32.80
2018-04-23T17:36:39.269Z,12.70
2018-04-23T17:39:06.798Z,9.13
2018-04-23T17:41:34.382Z,14.30
2018-04-23T17:44:01.939Z,7.23
2018-04-23T17:46:29.479Z,13.83
2018-04-23T17:48:57.075Z,15.43
2018-04-23T17:51:24.612Z,16.37
2018-04-23T17:53:52.146Z,13.80
2018-04-23T17:56:20.487Z,13.50
2018-04-23T17:58:48.082Z,13.53
2018-04-23T18:01:16.414Z,12.73
2018-04-23T18:03:43.946Z,16.07
2018-04-23T18:06:11.518Z,17.03
2018-04-23T18:08:39.057Z,8.83
2018-04-23T18:11:06.670Z,12.73
2018-04-23T18:13:34.199Z,12.77
2018-04-23T18:16:01.774Z,12.93
2018-04-23T18:18:29.352Z,12.10
2018-04-23T18:20:56.886Z,13.50
2018-04-23T18:23:25.223Z,29.60
2018-04-23T18:25:53.533Z,35.80
2018-04-23T18:28:21.101Z,11.47
2018-04-23T18:30:48.675Z,11.90
2018-04-23T18:33:16.214Z,16.67
2018-04-23T18:35:43.793Z,17.73
2018-04-23T18:38:11.328Z,11.03
2018-04-23T18:40:38.867Z,14.63
2018-04-23T18:43:07.207Z,15.57
2018-04-23T18:45:34.774Z,19.90
2018-04-23T18:48:02.362Z,19.37
2018-04-23T18:50:30.671Z,12.87
2018-04-23T18:52:58.200Z,15.40
2018-04-23T18:55:26.530Z,9.70
2018-04-23T18:57:54.074Z,21.00
2018-04-23T19:00:21.650Z,8.70
2018-04-23T19:02:49.190Z,15.10
2018-04-23T19:05:16.772Z,9.80
2018-04-23T19:07:44.311Z,12.50
2018-04-23T19:10:11.883Z,11.50
2018-04-23T19:12:39.454Z,10.27
2018-04-23T19:15:06.991Z,15.30
2018-04-23T19:17:34.545Z,12.73
2018-04-23T19:20:02.082Z,14.83
2018-04-23T19:22:30.427Z,13.13
2018-04-23T19:24:58.726Z,9.37
2018-04-23T19:27:27.127Z,13.60
2018-04-23T19:29:54.657Z,8.40
2018-04-23T19:32:22.208Z,28.80
2018-04-23T19:34:49.787Z,12.70
2018-04-23T19:37:18.087Z,13.47
2018-04-23T19:39:45.660Z,13.93
2018-04-23T19:42:13.196Z,14.03
2018-04-23T19:44:41.664Z,19.53
2018-04-23T19:47:09.971Z,13.27
2018-04-23T19:49:37.650Z,13.67
2018-04-23T19:52:05.222Z,19.20
2018-04-23T19:54:32.757Z,16.03
2018-04-23T19:57:00.331Z,10.93
2018-04-23T19:59:27.866Z,11.43
2018-04-23T20:01:55.434Z,11.83
2018-04-23T20:04:22.976Z,12.63
2018-04-23T20:06:51.322Z,11.87
2018-04-23T20:09:20.367Z,9.23
2018-04-23T20:11:47.933Z,8.10
2018-04-23T20:14:15.459Z,9.70
2018-04-23T20:16:43.798Z,6.30
2018-04-23T20:19:11.332Z,11.00
2018-04-23T20:21:38.907Z,11.07
2018-04-23T20:24:06.461Z,13.80
2018-04-23T20:26:34.003Z,10.40
2018-04-23T20:29:01.582Z,8.60
2018-04-23T20:31:29.115Z,11.23
2018-04-23T20:33:57.453Z,16.17
2018-04-23T20:36:24.983Z,9.93
2018-04-23T20:38:52.516Z,12.93
2018-04-23T20:41:20.087Z,13.47
2018-04-23T20:43:47.661Z,10.00
2018-04-23T20:46:15.199Z,9.00
2018-04-23T20:48:42.773Z,13.73
2018-04-23T20:51:10.354Z,12.10
2018-04-23T20:53:37.882Z,10.50
2018-04-23T20:56:05.414Z,12.50
2018-04-23T20:58:32.987Z,8.57
2018-04-23T21:01:01.282Z,8.40
2018-04-23T21:03:28.856Z,13.17
2018-04-23T21:05:56.391Z,6.80
2018-04-23T21:08:24.711Z,9.10
2018-04-23T21:10:52.273Z,7.07
2018-04-23T21:13:19.937Z,6.93
2018-04-23T21:15:47.498Z,5.27
2018-04-23T21:18:15.036Z,8.93
2018-04-23T21:20:42.602Z,9.50
2018-04-23T21:23:10.167Z,6.87
2018-04-23T21:25:37.739Z,9.33
2018-04-23T21:28:05.270Z,7.70
2018-04-23T21:30:32.844Z,9.87
2018-04-23T21:33:00.387Z,11.07
2018-04-23T21:35:27.950Z,6.63
2018-04-23T21:37:55.487Z,7.00
2018-04-23T21:40:23.825Z,8.40
2018-04-23T21:42:51.365Z,11.53
2018-04-23T21:45:18.904Z,8.77
2018-04-23T21:47:46.474Z,8.43
2018-04-23T21:50:14.054Z,6.57
2018-04-23T21:52:41.590Z,9.57
2018-04-23T21:55:09.132Z,12.33
2018-04-23T21:57:37.470Z,10.57
2018-04-23T22:00:05.006Z,10.97
2018-04-23T22:02:32.588Z,11.10
2018-04-23T22:05:00.163Z,21.50
2018-04-23T22:07:27.698Z,8.10
2018-04-23T22:09:55.253Z,6.13
2018-04-23T22:12:22.824Z,9.60
2018-04-23T22:14:50.379Z,9.03
2018-04-23T22:17:17.954Z,10.10
2018-04-23T22:19:45.537Z,7.70
2018-04-23T22:22:13.846Z,10.40
2018-04-23T22:24:41.391Z,11.27
2018-04-23T22:27:08.967Z,9.40
2018-04-23T22:29:36.507Z,12.97
2018-04-23T22:32:04.853Z,12.70
2018-04-23T22:34:32.431Z,12.33
2018-04-23T22:37:00.742Z,13.60
2018-04-23T22:39:28.334Z,10.30
2018-04-23T22:41:55.861Z,7.73
2018-04-23T22:44:23.395Z,9.20
2018-04-23T22:46:51.725Z,9.30
2018-04-23T22:49:19.260Z,8.77
2018-04-23T22:51:46.861Z,13.07
2018-04-23T22:54:14.396Z,8.70
2018-04-23T22:56:41.965Z,16.63
2018-04-23T22:59:09.534Z,8.30
2018-04-23T23:01:37.106Z,24.60
2018-04-23T23:04:04.666Z,10.40
2018-04-23T23:06:32.204Z,11.07
2018-04-23T23:08:59.774Z,14.27
2018-04-23T23:11:27.370Z,15.30
2018-04-23T23:13:55.707Z,8.93
2018-04-23T23:16:23.243Z,5.43
2018-04-23T23:18:50.775Z,6.40
2018-04-23T23:21:19.136Z,9.30
2018-04-23T23:23:46.677Z,14.87
2018-04-23T23:26:14.206Z,9.37
2018-04-23T23:28:41.767Z,9.80
2018-04-23T23:31:09.325Z,10.73
2018-04-23T23:33:36.901Z,9.60
2018-04-23T23:36:04.441Z,10.80
2018-04-23T23:38:31.978Z,7.30
2018-04-23T23:41:00.303Z,12.17
2018-04-23T23:43:27.839Z,7.80
2018-04-23T23:45:55.414Z,6.50
2018-04-23T23:48:22.941Z,8.87
2018-04-23T23:50:51.271Z,5.90
2018-04-23T23:53:18.863Z,11.60
2018-04-23T23:55:46.395Z,7.83
2018-04-23T23:58:13.930Z,5.50
